Terminal Aerodrome Forecast
Issued by NWS Bismarck, ND

Home | Current Version | Previous Version | Graphics & Text | Print | Product List | Glossary On
Versions: 1 2 3 4 5 6 7 8 9 10 11 12 13 14 15 16 17
000
FTUS43 KBIS 222300
TAFBIS
TAF
KBIS 222320Z 2300/2324 12020G28KT P6SM SCT250
     FM230700 11018G25KT P6SM -SHRA OVC040
     FM231200 12017G23KT P6SM OVC025
     FM231900 18016G23KT P6SM -SHRA OVC035=

USA.gov is the U.S. government's official web portal to all federal, state and local government web resources and services.